Time;durP1;ratioP1;P1;durP2;ratioP2;P2;SDS_P1;SDS_P2;PMS_P1;PMS_P2;Temp;Humidity;BMP_temperature;BMP_pressure;BME280_temperature;BME280_humidity;BME280_pressure;Samples;Min_cycle;Max_cycle;Signal;HPM_P1;HPM_P2
2021/12/17 00:07:25;;;;;;;34.90;15.82;;;1.60;99.90;;;;;;5031091;28;20105;-74
2021/12/17 00:09:53;;;;;;;29.08;15.07;;;1.50;99.90;;;;;;5031789;28;20056;-74
2021/12/17 00:12:21;;;;;;;27.63;14.25;;;1.60;99.90;;;;;;5031820;28;20010;-73
2021/12/17 00:14:49;;;;;;;28.30;14.90;;;1.50;99.90;;;;;;5014842;28;20021;-74
2021/12/17 00:17:21;;;;;;;31.15;15.13;;;1.60;99.90;;;;;;5031148;28;20030;-74
2021/12/17 00:50:03;;;;;;;28.38;15.13;;;1.20;99.90;;;;;;5030708;28;20056;-73
2021/12/17 00:52:33;;;;;;;32.97;14.98;;;1.30;99.90;;;;;;5030548;28;20021;-73
2021/12/17 00:54:59;;;;;;;27.95;14.38;;;1.20;99.90;;;;;;5030653;28;20033;-73
2021/12/17 00:57:30;;;;;;;27.92;15.00;;;1.20;99.90;;;;;;5031189;28;20022;-73
2021/12/17 00:59:56;;;;;;;30.50;14.85;;;1.10;99.90;;;;;;5031968;28;20526;-74
2021/12/17 01:02:29;;;;;;;26.35;14.07;;;1.20;99.90;;;;;;5030366;28;20033;-73
2021/12/17 01:05:00;;;;;;;28.33;13.40;;;1.10;99.90;;;;;;5029921;28;20562;-74
2021/12/17 01:07:29;;;;;;;32.88;14.27;;;1.20;99.90;;;;;;5012418;28;20491;-73
2021/12/17 01:09:55;;;;;;;30.35;14.45;;;1.20;99.90;;;;;;5030432;28;20039;-73
2021/12/17 01:12:22;;;;;;;21.70;13.43;;;1.20;99.90;;;;;;5030016;28;20116;-73
2021/12/17 01:14:49;;;;;;;21.00;12.27;;;1.20;99.90;;;;;;5030609;28;20026;-73
2021/12/17 01:17:19;;;;;;;25.27;12.95;;;1.30;99.90;;;;;;5030040;28;20025;-73
2021/12/17 01:25:00;;;;;;;25.08;13.82;;;1.10;99.90;;;;;;5030087;28;20059;-73
2021/12/17 01:35:42;;;;;;;21.25;12.07;;;1.00;99.90;;;;;;5030644;28;20041;-73
2021/12/17 01:41:13;;;;;;;22.25;11.95;;;1.10;99.90;;;;;;5029817;28;20072;-73
2021/12/17 01:43:46;;;;;;;23.00;12.52;;;1.00;99.90;;;;;;5029413;28;20116;-73
2021/12/17 01:46:20;;;;;;;23.02;11.38;;;1.00;99.90;;;;;;5029636;28;20064;-73
2021/12/17 01:49:16;;;;;;;21.48;11.57;;;1.00;99.90;;;;;;5029656;28;20045;-73
2021/12/17 02:00:07;;;;;;;23.83;13.18;;;0.90;99.90;;;;;;5031019;28;20033;-73
2021/12/17 02:02:41;;;;;;;20.67;11.70;;;0.90;99.90;;;;;;5029116;28;20034;-73
2021/12/17 02:05:08;;;;;;;20.58;10.82;;;0.90;99.90;;;;;;5029162;28;20033;-73
2021/12/17 02:07:34;;;;;;;22.17;12.38;;;1.00;99.90;;;;;;5029355;28;20025;-73
2021/12/17 02:13:04;;;;;;;24.10;12.18;;;1.00;99.90;;;;;;5029723;28;20404;-73
2021/12/17 02:29:47;;;;;;;22.40;11.70;;;0.90;99.90;;;;;;5026365;28;20041;-73
2021/12/17 02:32:12;;;;;;;21.00;10.98;;;0.80;99.90;;;;;;5026191;28;20030;-73
2021/12/17 02:35:02;;;;;;;19.13;10.88;;;0.80;99.90;;;;;;5025971;28;20627;-73
2021/12/17 02:37:30;;;;;;;21.55;10.23;;;0.90;99.90;;;;;;5025816;28;20041;-73
2021/12/17 02:48:07;;;;;;;22.45;12.70;;;0.80;99.90;;;;;;5027246;28;20212;-73
2021/12/17 02:50:36;;;;;;;21.83;12.18;;;0.70;99.90;;;;;;5025700;28;20029;-72
2021/12/17 02:53:07;;;;;;;21.92;11.50;;;0.70;99.90;;;;;;5025618;28;20084;-70
2021/12/17 02:55:35;;;;;;;22.65;12.35;;;0.70;99.90;;;;;;5025707;28;20041;-72
2021/12/17 02:58:01;;;;;;;22.92;11.02;;;0.60;99.90;;;;;;5021974;28;20110;-73
2021/12/17 03:00:29;;;;;;;23.08;12.18;;;0.50;99.90;;;;;;5024966;28;20511;-72
2021/12/17 03:02:55;;;;;;;23.27;11.75;;;0.50;99.90;;;;;;5029606;28;20565;-72
2021/12/17 03:05:22;;;;;;;22.38;11.77;;;0.60;99.90;;;;;;5027764;28;20037;-72
2021/12/17 03:07:49;;;;;;;24.85;12.48;;;0.60;99.90;;;;;;5027769;28;20022;-72
2021/12/17 03:10:16;;;;;;;22.08;11.13;;;0.60;99.90;;;;;;5028089;28;20020;-73
2021/12/17 03:25:46;;;;;;;23.85;11.38;;;0.60;99.90;;;;;;5027469;28;20158;-72
2021/12/17 03:28:12;;;;;;;19.08;11.43;;;0.70;99.90;;;;;;5028241;28;20108;-72
2021/12/17 03:30:37;;;;;;;21.90;11.10;;;0.80;99.90;;;;;;5010173;28;20503;-72
2021/12/17 03:33:04;;;;;;;21.33;10.77;;;0.60;99.90;;;;;;5028950;28;20043;-72
2021/12/17 03:35:29;;;;;;;21.88;10.93;;;0.50;99.90;;;;;;5027093;28;20030;-72
2021/12/17 03:37:55;;;;;;;20.10;10.80;;;0.60;99.90;;;;;;5009827;28;20502;-70
2021/12/17 03:40:21;;;;;;;23.70;11.65;;;0.60;99.90;;;;;;5027407;28;20635;-72
2021/12/17 03:42:50;;;;;;;23.50;11.75;;;0.50;99.90;;;;;;5028029;28;20045;-72
2021/12/17 03:45:18;;;;;;;22.33;10.52;;;0.50;99.90;;;;;;5028216;28;20022;-72
2021/12/17 03:47:44;;;;;;;20.77;10.68;;;0.50;99.90;;;;;;5028211;28;20284;-72
2021/12/17 03:50:11;;;;;;;21.58;10.52;;;0.60;99.90;;;;;;5027157;28;20128;-71
2021/12/17 03:52:37;;;;;;;22.45;11.23;;;0.50;99.90;;;;;;5027504;28;20390;-71
2021/12/17 03:55:03;;;;;;;24.58;11.93;;;0.40;99.90;;;;;;5027012;28;20517;-71
2021/12/17 03:57:30;;;;;;;23.33;13.60;;;0.30;99.90;;;;;;5027832;28;20047;-72
2021/12/17 03:59:55;;;;;;;27.20;12.60;;;0.00;99.90;;;;;;5028852;28;20514;-71
2021/12/17 04:02:21;;;;;;;26.08;13.20;;;0.20;99.90;;;;;;5009580;28;20060;-71
2021/12/17 04:04:47;;;;;;;26.17;13.90;;;0.30;99.90;;;;;;5027312;28;20029;-71
2021/12/17 04:07:13;;;;;;;23.85;12.15;;;0.40;99.90;;;;;;5026820;28;20024;-71
2021/12/17 04:09:38;;;;;;;27.83;12.73;;;0.30;99.90;;;;;;5027266;28;20048;-71
2021/12/17 04:12:09;;;;;;;26.35;12.07;;;0.30;99.90;;;;;;5029015;28;20445;-71
2021/12/17 04:14:43;;;;;;;24.92;12.65;;;0.20;99.90;;;;;;5027366;28;20112;-71
2021/12/17 04:17:09;;;;;;;23.70;11.80;;;0.30;99.90;;;;;;5009707;28;20025;-71
2021/12/17 04:19:36;;;;;;;22.58;12.07;;;0.10;99.90;;;;;;5027268;28;20025;-71
2021/12/17 04:22:02;;;;;;;29.92;12.68;;;0.00;99.90;;;;;;5027219;28;20173;-71
2021/12/17 04:24:28;;;;;;;24.52;12.55;;;0.10;99.90;;;;;;5027096;28;20304;-71
2021/12/17 04:26:54;;;;;;;26.20;12.32;;;0.30;99.90;;;;;;5028549;28;20059;-71
2021/12/17 04:29:21;;;;;;;24.67;13.05;;;0.20;99.90;;;;;;5026970;28;20021;-71
2021/12/17 04:31:52;;;;;;;25.08;11.75;;;0.10;99.90;;;;;;5026981;28;20025;-71
2021/12/17 04:34:18;;;;;;;;;;;0.00;99.90;;;;;;5027292;28;20475;-71
2021/12/17 04:36:47;;;;;;;23.02;10.55;;;0.10;99.90;;;;;;5027586;28;19909;-71
2021/12/17 04:39:13;;;;;;;22.73;10.93;;;0.20;99.90;;;;;;5028987;28;20033;-71
2021/12/17 04:44:24;;;;;;;21.02;10.93;;;0.10;99.90;;;;;;5027201;28;20025;-71
2021/12/17 04:57:14;;;;;;;19.50;10.77;;;0.20;99.90;;;;;;5027442;28;20523;-71
2021/12/17 04:57:46;;;;;;;21.38;10.77;;;-0.20;99.90;;;;;;5030873;28;20041;-71
2021/12/17 05:00:20;;;;;;;18.42;9.35;;;0.10;99.90;;;;;;5032374;28;20091;-71
2021/12/17 05:02:50;;;;;;;18.08;9.15;;;0.40;99.90;;;;;;5031511;28;20061;-71
2021/12/17 05:05:17;;;;;;;18.43;9.63;;;0.50;99.90;;;;;;5012302;28;20121;-71
2021/12/17 05:07:52;;;;;;;16.48;9.88;;;0.60;99.90;;;;;;5030110;28;20025;-71
2021/12/17 05:20:49;;;;;;;15.27;8.60;;;0.90;99.90;;;;;;5031257;28;20056;-71
2021/12/17 05:23:16;;;;;;;16.40;7.67;;;0.90;99.90;;;;;;5030307;28;20033;-71
2021/12/17 05:25:42;;;;;;;15.13;8.45;;;1.00;99.90;;;;;;5029979;28;20124;-72
2021/12/17 05:28:08;;;;;;;13.65;7.68;;;1.00;99.90;;;;;;5030435;28;20469;-71
2021/12/17 05:30:35;;;;;;;12.70;7.47;;;1.10;99.90;;;;;;5029901;28;20022;-71
2021/12/17 05:33:01;;;;;;;15.18;7.65;;;1.10;99.90;;;;;;5031343;28;20021;-71
2021/12/17 05:35:27;;;;;;;16.20;8.13;;;1.10;99.90;;;;;;5029681;28;20528;-71
2021/12/17 05:37:54;;;;;;;12.68;7.05;;;1.10;99.90;;;;;;5029319;28;20112;-71
2021/12/17 05:40:20;;;;;;;17.25;8.30;;;1.10;99.90;;;;;;5029762;28;20560;-71
2021/12/17 05:42:48;;;;;;;14.02;7.95;;;1.10;99.90;;;;;;5030163;28;20112;-72
2021/12/17 05:48:20;;;;;;;16.90;7.65;;;1.10;99.90;;;;;;5031336;28;20052;-71
2021/12/17 05:50:47;;;;;;;15.38;7.22;;;1.10;99.90;;;;;;5030397;28;20049;-71
2021/12/17 05:53:13;;;;;;;16.10;7.88;;;1.00;99.90;;;;;;5029125;28;20104;-71
2021/12/17 05:55:39;;;;;;;18.42;8.80;;;1.00;99.90;;;;;;5029617;28;20129;-71
2021/12/17 05:58:06;;;;;;;19.60;9.73;;;0.90;99.90;;;;;;5029612;28;20497;-71
2021/12/17 06:00:32;;;;;;;19.65;9.20;;;1.00;99.90;;;;;;5029131;28;20033;-71
2021/12/17 06:02:59;;;;;;;22.13;10.13;;;1.10;99.90;;;;;;5031146;28;20024;-71
2021/12/17 06:05:26;;;;;;;21.73;10.70;;;1.10;99.90;;;;;;5028723;28;20029;-71
2021/12/17 06:07:52;;;;;;;21.08;9.73;;;1.20;99.90;;;;;;5028677;28;20064;-71
2021/12/17 06:10:18;;;;;;;22.23;8.50;;;1.20;99.90;;;;;;5029354;28;20033;-71
2021/12/17 06:12:44;;;;;;;19.00;9.65;;;1.20;99.90;;;;;;5029260;28;20025;-71
2021/12/17 06:15:15;;;;;;;19.92;9.95;;;1.30;99.90;;;;;;5030900;28;20592;-71
2021/12/17 06:17:41;;;;;;;17.27;9.10;;;1.20;99.90;;;;;;5029780;28;20056;-71
2021/12/17 06:20:09;;;;;;;20.35;9.70;;;1.10;99.90;;;;;;5028957;28;20513;-71
2021/12/17 06:22:36;;;;;;;16.98;8.93;;;1.10;99.90;;;;;;5028616;28;20021;-71
2021/12/17 06:25:05;;;;;;;18.42;9.65;;;1.10;99.90;;;;;;5029069;28;20037;-71
2021/12/17 06:27:31;;;;;;;16.98;8.45;;;1.10;99.90;;;;;;5029133;28;20022;-71
2021/12/17 06:29:57;;;;;;;19.02;8.52;;;1.00;99.90;;;;;;5012618;28;20388;-71
2021/12/17 06:32:24;;;;;;;13.55;8.15;;;1.00;99.90;;;;;;5028669;28;20033;-71
2021/12/17 06:34:51;;;;;;;17.85;8.20;;;0.90;99.90;;;;;;5027193;28;20033;-71
2021/12/17 06:37:17;;;;;;;14.90;7.65;;;0.90;99.90;;;;;;5028318;28;20487;-71
2021/12/17 06:39:45;;;;;;;15.18;8.25;;;0.90;99.90;;;;;;5028854;28;20072;-71
2021/12/17 06:42:12;;;;;;;13.48;7.35;;;0.80;99.90;;;;;;5030398;28;20022;-71
2021/12/17 06:44:40;;;;;;;14.50;7.53;;;0.80;99.90;;;;;;5028316;28;20562;-71
2021/12/17 06:55:33;;;;;;;14.13;7.45;;;0.70;99.90;;;;;;5013836;28;20036;-71
2021/12/17 07:11:01;;;;;;;19.10;9.77;;;0.70;99.90;;;;;;5027407;28;20352;-71
2021/12/17 07:35:49;;;;;;;17.13;8.30;;;0.70;99.90;;;;;;4985730;28;20054;-71
2021/12/17 07:41:02;;;;;;;20.67;10.82;;;0.80;99.90;;;;;;4985527;28;20030;-71
2021/12/17 07:43:36;;;;;;;16.40;9.05;;;0.80;99.90;;;;;;4979106;28;20104;-71
2021/12/17 07:46:04;;;;;;;20.15;9.85;;;0.80;99.90;;;;;;4968443;28;20550;-71
2021/12/17 07:48:31;;;;;;;20.55;10.60;;;0.90;99.90;;;;;;4985050;28;20026;-71
2021/12/17 07:50:58;;;;;;;21.00;10.90;;;0.90;99.90;;;;;;4984406;28;20072;-71
2021/12/17 07:53:24;;;;;;;22.25;10.65;;;1.10;99.90;;;;;;4984366;28;20113;-71
2021/12/17 07:55:49;;;;;;;22.05;11.35;;;1.30;99.90;;;;;;4984326;28;20124;-71
2021/12/17 07:58:15;;;;;;;20.63;10.63;;;1.20;99.90;;;;;;4994305;28;20120;-71
2021/12/17 08:00:42;;;;;;;25.00;11.75;;;1.20;99.90;;;;;;5004377;28;20418;-71
2021/12/17 08:03:08;;;;;;;20.80;11.27;;;1.20;99.90;;;;;;5005633;28;20041;-71
2021/12/17 08:05:34;;;;;;;25.70;12.23;;;1.50;99.90;;;;;;5004373;28;20234;-71
2021/12/17 08:08:00;;;;;;;18.77;11.30;;;1.50;99.90;;;;;;5004089;28;20034;-71
2021/12/17 08:10:26;;;;;;;22.08;11.55;;;1.70;99.90;;;;;;5022907;28;20087;-71
2021/12/17 08:12:55;;;;;;;22.35;12.10;;;1.70;99.90;;;;;;5025871;28;20029;-71
2021/12/17 08:15:28;;;;;;;21.73;11.63;;;1.70;99.90;;;;;;5027251;28;20533;-71
2021/12/17 08:29:12;;;;;;;26.70;13.60;;;1.80;99.90;;;;;;4988313;28;20088;-71
2021/12/17 08:31:25;;;;;;;26.63;14.15;;;1.90;99.90;;;;;;4986237;28;20166;-71
2021/12/17 08:33:51;;;;;;;32.85;14.38;;;2.20;99.90;;;;;;4988455;28;20034;-71
2021/12/17 08:36:18;;;;;;;28.42;14.02;;;2.10;99.90;;;;;;4990527;28;20037;-71
2021/12/17 08:38:45;;;;;;;25.85;12.98;;;1.90;99.90;;;;;;4990139;28;20056;-71
2021/12/17 08:41:11;;;;;;;25.23;12.18;;;2.10;99.90;;;;;;4987146;28;20245;-71
2021/12/17 08:43:37;;;;;;;27.80;13.45;;;2.50;99.90;;;;;;4989397;28;20046;-71
2021/12/17 08:46:03;;;;;;;31.17;14.07;;;2.60;99.90;;;;;;4970484;28;20093;-71
2021/12/17 08:48:29;;;;;;;27.83;13.50;;;2.60;99.90;;;;;;4988558;28;20050;-71
2021/12/17 08:50:57;;;;;;;26.33;13.43;;;2.50;99.90;;;;;;4973755;28;20078;-71
2021/12/17 08:53:23;;;;;;;25.65;13.68;;;2.70;99.90;;;;;;4986797;28;20516;-71
2021/12/17 08:55:49;;;;;;;23.70;12.63;;;3.10;99.90;;;;;;4987835;28;20049;-71
2021/12/17 08:58:15;;;;;;;20.85;11.88;;;3.10;99.90;;;;;;4987649;28;20037;-71
2021/12/17 09:00:44;;;;;;;24.80;14.25;;;4.20;99.90;;;;;;4988172;28;20030;-71
2021/12/17 09:03:11;;;;;;;29.95;15.57;;;5.90;99.90;;;;;;5014119;28;20040;-71
2021/12/17 09:05:38;;;;;;;26.98;14.60;;;5.90;99.90;;;;;;5031840;28;20061;-71
2021/12/17 09:08:05;;;;;;;29.15;13.90;;;7.70;99.90;;;;;;5030873;28;20033;-71
2021/12/17 09:10:31;;;;;;;25.20;13.20;;;9.00;99.90;;;;;;5025493;28;20026;-71
2021/12/17 09:12:57;;;;;;;24.30;12.02;;;9.50;99.90;;;;;;5031307;28;20025;-72
2021/12/17 09:15:22;;;;;;;20.40;10.60;;;7.60;99.90;;;;;;5029963;28;20194;-72
2021/12/17 09:17:48;;;;;;;23.92;11.68;;;6.20;99.90;;;;;;5029318;28;20067;-72
2021/12/17 09:20:14;;;;;;;20.38;9.88;;;5.60;99.90;;;;;;5028104;28;20116;-72
2021/12/17 09:22:40;;;;;;;16.55;9.60;;;5.30;99.90;;;;;;5024602;28;20065;-72
2021/12/17 09:25:06;;;;;;;20.27;9.68;;;5.10;99.90;;;;;;5028535;28;20083;-72
2021/12/17 09:27:32;;;;;;;17.67;9.38;;;5.10;99.90;;;;;;5029207;28;20030;-72
2021/12/17 09:29:58;;;;;;;14.63;8.45;;;4.90;99.90;;;;;;5030870;28;20490;-72
2021/12/17 09:32:23;;;;;;;14.52;7.85;;;5.00;99.90;;;;;;5029421;28;20112;-72
2021/12/17 09:34:49;;;;;;;13.00;8.05;;;5.10;99.90;;;;;;5028290;28;20514;-72
2021/12/17 09:37:17;;;;;;;14.88;7.78;;;5.10;99.90;;;;;;5029376;28;20033;-72
2021/12/17 09:39:43;;;;;;;12.55;7.10;;;5.00;99.90;;;;;;5011953;28;20522;-72
2021/12/17 09:42:10;;;;;;;13.18;7.68;;;5.10;99.90;;;;;;5031342;28;20108;-72
2021/12/17 09:44:35;;;;;;;10.63;6.45;;;5.30;99.90;;;;;;5029601;28;20040;-72
2021/12/17 09:47:02;;;;;;;10.93;6.53;;;5.30;99.90;;;;;;5029277;28;20504;-73
2021/12/17 09:49:29;;;;;;;11.30;6.53;;;5.40;99.90;;;;;;5011649;28;20095;-72
2021/12/17 09:51:56;;;;;;;11.68;6.40;;;5.30;99.90;;;;;;5029638;28;20111;-72
2021/12/17 09:54:22;;;;;;;13.43;7.40;;;5.30;99.90;;;;;;5030214;28;20029;-72
2021/12/17 09:56:47;;;;;;;9.35;6.18;;;5.40;99.90;;;;;;5012903;28;20070;-72
2021/12/17 09:59:14;;;;;;;10.73;6.70;;;5.80;99.90;;;;;;5029041;28;20052;-72
2021/12/17 10:01:42;;;;;;;12.75;6.32;;;5.70;99.90;;;;;;5029380;28;20030;-72
2021/12/17 10:04:16;;;;;;;10.32;5.70;;;6.10;99.90;;;;;;5029698;28;20037;-72
2021/12/17 10:06:43;;;;;;;7.88;5.70;;;6.60;99.90;;;;;;5029646;28;20068;-72
2021/12/17 10:09:09;;;;;;;11.20;7.10;;;6.80;99.90;;;;;;5030765;28;20063;-72
2021/12/17 10:11:35;;;;;;;9.35;6.00;;;6.90;99.90;;;;;;5029248;28;20017;-72
2021/12/17 10:14:18;;;;;;;8.98;6.13;;;7.00;99.90;;;;;;5028835;28;20503;-72
2021/12/17 10:16:45;;;;;;;9.65;5.80;;;7.20;99.90;;;;;;5029055;28;20079;-72
2021/12/17 10:19:10;;;;;;;7.82;5.93;;;7.30;99.90;;;;;;5011163;28;20091;-72
2021/12/17 10:21:44;;;;;;;9.23;5.78;;;7.40;99.90;;;;;;5029325;28;20029;-72
2021/12/17 10:24:22;;;;;;;10.75;5.75;;;7.40;99.90;;;;;;5030733;28;20037;-72
2021/12/17 10:26:48;;;;;;;11.25;6.32;;;7.50;99.90;;;;;;5012214;28;20093;-72
2021/12/17 10:29:21;;;;;;;8.68;6.07;;;7.50;99.90;;;;;;5028850;28;20052;-73
2021/12/17 10:31:56;;;;;;;10.27;6.40;;;7.60;99.90;;;;;;5011096;28;20091;-73
2021/12/17 10:34:24;;;;;;;9.00;6.05;;;7.70;99.90;;;;;;5028327;28;20034;-72
2021/12/17 10:36:50;;;;;;;9.63;6.22;;;7.70;99.90;;;;;;5028518;28;20041;-73
2021/12/17 10:39:30;;;;;;;11.10;6.07;;;7.80;99.90;;;;;;5030558;28;20494;-73
2021/12/17 10:41:56;;;;;;;9.13;5.10;;;7.90;99.90;;;;;;5030055;28;20057;-73
2021/12/17 10:44:22;;;;;;;7.88;5.63;;;8.00;99.90;;;;;;5028345;28;20032;-73
2021/12/17 10:47:18;;;;;;;8.80;5.95;;;8.00;99.90;;;;;;5028392;28;20045;-73
2021/12/17 10:49:54;;;;;;;11.82;5.85;;;8.10;99.90;;;;;;5028505;28;20030;-73
2021/12/17 10:52:28;;;;;;;9.57;6.38;;;8.20;99.90;;;;;;5028065;28;20499;-73
2021/12/17 10:55:13;;;;;;;10.70;6.53;;;8.30;99.90;;;;;;5028281;28;20024;-73
2021/12/17 10:57:38;;;;;;;11.15;6.50;;;8.30;99.90;;;;;;5010559;28;20186;-73
2021/12/17 11:00:07;;;;;;;8.93;5.65;;;8.40;99.90;;;;;;5029983;28;20606;-73
2021/12/17 11:02:33;;;;;;;8.63;5.50;;;8.40;99.90;;;;;;5028150;28;20487;-74
2021/12/17 11:05:10;;;;;;;10.32;6.00;;;8.50;99.90;;;;;;5027779;28;20079;-74
2021/12/17 11:07:39;;;;;;;14.77;6.28;;;8.70;99.90;;;;;;5028104;28;20100;-74
2021/12/17 11:10:05;;;;;;;8.98;5.07;;;8.70;99.90;;;;;;5010414;28;20024;-74
2021/12/17 11:12:32;;;;;;;10.45;6.22;;;8.60;99.90;;;;;;5028158;28;20100;-74
2021/12/17 11:15:19;;;;;;;8.60;5.60;;;8.60;99.90;;;;;;5011985;28;20029;-74
2021/12/17 11:17:50;;;;;;;9.02;5.65;;;8.60;99.90;;;;;;5011212;28;20026;-73
2021/12/17 11:20:37;;;;;;;10.40;6.82;;;8.70;99.90;;;;;;5010443;28;20593;-75
2021/12/17 11:23:08;;;;;;;9.38;6.28;;;8.80;99.90;;;;;;5027775;28;20519;-74
2021/12/17 11:25:37;;;;;;;8.27;6.03;;;8.80;99.90;;;;;;5028016;28;20521;-74
2021/12/17 11:28:05;;;;;;;10.07;5.47;;;8.90;99.90;;;;;;5028185;28;20098;-74
2021/12/17 11:30:33;;;;;;;7.70;5.03;;;9.00;99.90;;;;;;5028215;28;20036;-74
2021/12/17 11:33:01;;;;;;;8.98;5.28;;;9.10;99.90;;;;;;5029665;28;20022;-74
2021/12/17 11:35:29;;;;;;;7.43;5.00;;;9.10;99.90;;;;;;5027565;28;20029;-74
2021/12/17 11:38:27;;;;;;;9.43;5.10;;;8.90;99.90;;;;;;5027107;28;20075;-75
2021/12/17 11:41:00;;;;;;;7.43;5.65;;;9.10;99.90;;;;;;5009817;28;20086;-75
2021/12/17 11:43:36;;;;;;;9.63;5.68;;;9.20;99.90;;;;;;5027222;28;20304;-74
2021/12/17 11:46:06;;;;;;;9.93;5.57;;;9.20;99.90;;;;;;5027232;28;20072;-75
2021/12/17 11:48:34;;;;;;;7.97;5.30;;;9.30;99.90;;;;;;5028079;28;20021;-75
2021/12/17 11:51:16;;;;;;;9.45;5.38;;;9.30;99.90;;;;;;5027558;28;20190;-74
2021/12/17 11:53:59;;;;;;;10.38;5.35;;;9.50;99.90;;;;;;5027623;28;20440;-74
2021/12/17 11:56:46;;;;;;;7.07;5.07;;;9.40;99.90;;;;;;5027110;28;20124;-75
2021/12/17 11:59:27;;;;;;;8.82;5.72;;;9.40;99.90;;;;;;5027498;28;20093;-75
2021/12/17 12:02:00;;;;;;;8.30;5.95;;;9.50;99.90;;;;;;5027205;28;20044;-75
2021/12/17 12:04:32;;;;;;;8.30;5.18;;;9.40;99.90;;;;;;5027101;28;20072;-75
2021/12/17 12:07:05;;;;;;;7.75;5.32;;;9.40;99.90;;;;;;5027156;28;20026;-74
2021/12/17 12:09:58;;;;;;;7.40;4.93;;;9.50;99.90;;;;;;5027934;28;20026;-75
2021/12/17 12:12:23;;;;;;;7.38;5.00;;;9.50;99.90;;;;;;5028140;28;20017;-74
2021/12/17 12:14:49;;;;;;;9.63;5.50;;;9.50;99.90;;;;;;5028487;28;20411;-75
2021/12/17 12:17:53;;;;;;;7.50;5.18;;;9.50;99.90;;;;;;5026862;28;20032;-74
2021/12/17 12:20:43;;;;;;;9.18;5.03;;;9.60;99.90;;;;;;5009083;28;20553;-75
2021/12/17 12:23:18;;;;;;;9.18;5.30;;;9.60;99.90;;;;;;5026898;28;20091;-75
2021/12/17 12:26:11;;;;;;;8.65;6.10;;;9.70;99.90;;;;;;5026989;28;20030;-75
2021/12/17 12:28:49;;;;;;;8.20;5.20;;;9.60;99.90;;;;;;5027152;28;20495;-75
2021/12/17 12:31:23;;;;;;;7.85;4.88;;;9.60;99.90;;;;;;5009256;28;20026;-75
2021/12/17 12:36:58;;;;;;;11.75;6.32;;;9.70;99.90;;;;;;5027003;28;20099;-74
2021/12/17 12:39:33;;;;;;;8.85;5.35;;;9.80;99.90;;;;;;5010043;28;20044;-75
2021/12/17 12:42:06;;;;;;;8.57;5.72;;;9.80;99.90;;;;;;5028685;28;20036;-75
2021/12/17 12:44:44;;;;;;;7.07;5.05;;;9.80;99.90;;;;;;5026708;28;20053;-75
2021/12/17 12:47:31;;;;;;;7.65;5.35;;;9.90;99.90;;;;;;5026714;28;20405;-75
2021/12/17 12:50:03;;;;;;;9.55;5.10;;;9.90;99.90;;;;;;5027018;28;20038;-75
2021/12/17 12:52:31;;;;;;;6.88;4.53;;;9.80;99.90;;;;;;5026619;28;20037;-75
2021/12/17 12:55:00;;;;;;;8.57;5.40;;;9.90;99.90;;;;;;5027036;28;20025;-75
2021/12/17 12:57:42;;;;;;;7.97;5.07;;;10.00;99.90;;;;;;5027225;28;20029;-73
2021/12/17 13:00:13;;;;;;;8.30;4.93;;;10.00;99.90;;;;;;5028872;28;20103;-74
2021/12/17 13:02:40;;;;;;;7.43;5.68;;;9.90;99.90;;;;;;5026677;28;20054;-73
2021/12/17 13:05:07;;;;;;;5.70;4.13;;;10.00;99.90;;;;;;5026452;28;20048;-74
2021/12/17 13:07:33;;;;;;;8.27;4.80;;;10.10;99.90;;;;;;5008882;28;20041;-74
2021/12/17 13:10:32;;;;;;;8.57;5.07;;;10.00;99.90;;;;;;5011438;28;20029;-74
2021/12/17 13:24:07;;;;;;;8.73;5.80;;;10.00;99.90;;;;;;5031635;28;20116;-74
2021/12/17 13:26:33;;;;;;;7.25;5.55;;;10.00;99.90;;;;;;5012106;28;20044;-74
2021/12/17 13:29:09;;;;;;;9.48;5.38;;;10.10;99.90;;;;;;5030084;28;20022;-74
2021/12/17 13:32:04;;;;;;;8.90;5.97;;;10.10;99.90;;;;;;5029932;28;20096;-74
2021/12/17 13:34:58;;;;;;;8.38;4.93;;;10.00;99.90;;;;;;4987906;28;20050;-74
2021/12/17 13:37:34;;;;;;;8.82;5.53;;;10.10;99.90;;;;;;4986641;28;20070;-74
2021/12/17 13:40:05;;;;;;;8.70;5.65;;;10.10;99.90;;;;;;4987923;28;20030;-74
2021/12/17 13:42:35;;;;;;;9.05;5.10;;;10.20;99.90;;;;;;4988187;28;20058;-74
2021/12/17 13:45:04;;;;;;;11.55;5.22;;;10.00;99.90;;;;;;4989594;28;20173;-73
2021/12/17 13:47:40;;;;;;;9.55;6.22;;;10.00;99.90;;;;;;4987621;28;20284;-74
2021/12/17 13:50:13;;;;;;;6.85;4.85;;;10.00;99.90;;;;;;4987702;28;20065;-74
2021/12/17 13:52:54;;;;;;;8.15;5.25;;;10.00;99.90;;;;;;4987516;28;20039;-74
2021/12/17 13:55:38;;;;;;;9.80;5.00;;;10.00;99.90;;;;;;4987708;28;20080;-74
2021/12/17 13:58:13;;;;;;;8.32;5.22;;;10.00;99.90;;;;;;4987651;28;20081;-74
2021/12/17 14:00:46;;;;;;;8.55;5.80;;;9.90;99.90;;;;;;4987824;28;20070;-74
2021/12/17 14:03:13;;;;;;;8.13;4.93;;;9.90;99.90;;;;;;4989159;28;20031;-74
2021/12/17 14:05:43;;;;;;;7.38;5.00;;;10.00;99.90;;;;;;4976044;28;20082;-74
2021/12/17 14:08:14;;;;;;;6.47;4.53;;;10.00;99.90;;;;;;4981878;28;20057;-74
2021/12/17 14:10:40;;;;;;;8.13;5.67;;;10.00;99.90;;;;;;4986839;28;20545;-74
2021/12/17 14:13:18;;;;;;;8.55;4.97;;;10.00;99.90;;;;;;5028540;28;20022;-74
2021/12/17 14:15:45;;;;;;;8.80;5.43;;;9.90;99.90;;;;;;5028648;28;20060;-74
2021/12/17 14:18:16;;;;;;;8.77;5.35;;;9.90;99.90;;;;;;5012004;28;20518;-74
2021/12/17 14:20:49;;;;;;;7.32;4.63;;;9.90;99.90;;;;;;5027747;28;20518;-74
2021/12/17 14:23:26;;;;;;;8.48;4.82;;;9.90;99.90;;;;;;5010448;28;20620;-74
2021/12/17 14:25:57;;;;;;;8.20;5.22;;;9.90;99.90;;;;;;5027876;28;20522;-74
2021/12/17 14:28:50;;;;;;;8.02;4.80;;;9.80;99.90;;;;;;5028687;28;20022;-74
2021/12/17 14:31:18;;;;;;;6.93;4.97;;;9.80;99.90;;;;;;5024386;28;20071;-74
2021/12/17 14:33:46;;;;;;;8.45;5.05;;;9.70;99.90;;;;;;5027776;28;20017;-74
2021/12/17 14:36:13;;;;;;;6.40;4.28;;;9.70;99.90;;;;;;5030269;28;20053;-74
2021/12/17 14:38:49;;;;;;;7.53;4.72;;;9.80;99.90;;;;;;5027548;28;20034;-74
2021/12/17 14:41:24;;;;;;;8.20;4.97;;;9.80;99.90;;;;;;5010405;28;20101;-74
2021/12/17 14:44:21;;;;;;;8.95;5.50;;;9.70;99.90;;;;;;5027622;28;20300;-74
2021/12/17 15:02:50;;;;;;;9.85;5.00;;;9.40;99.90;;;;;;5027497;28;20534;-74
2021/12/17 15:05:19;;;;;;;7.43;5.18;;;9.40;99.90;;;;;;5009978;28;20475;-73
2021/12/17 15:07:45;;;;;;;8.30;5.03;;;9.30;99.90;;;;;;5027156;28;20009;-74
2021/12/17 15:10:14;;;;;;;9.43;4.93;;;9.30;99.90;;;;;;5024635;28;20076;-74
2021/12/17 15:12:40;;;;;;;9.65;5.43;;;9.30;99.90;;;;;;5027248;28;20049;-74
2021/12/17 15:15:21;;;;;;;8.38;5.40;;;9.30;99.90;;;;;;5028130;28;20259;-74
2021/12/17 15:17:49;;;;;;;7.80;5.05;;;9.20;99.90;;;;;;5028130;28;20049;-74
2021/12/17 15:20:18;;;;;;;7.93;5.13;;;9.10;99.90;;;;;;5027205;28;20033;-74
2021/12/17 15:22:44;;;;;;;5.53;4.20;;;9.10;99.90;;;;;;5027355;28;20021;-74
2021/12/17 15:25:12;;;;;;;5.95;4.55;;;9.10;99.90;;;;;;5027614;28;20032;-74
2021/12/17 15:27:39;;;;;;;6.32;3.97;;;9.00;99.90;;;;;;5027935;28;22872;-74
2021/12/17 15:30:20;;;;;;;6.78;4.50;;;8.90;99.90;;;;;;5028723;28;20026;-74
2021/12/17 15:32:46;;;;;;;6.35;4.30;;;8.90;99.90;;;;;;5026611;28;20021;-73
2021/12/17 15:35:12;;;;;;;6.57;4.38;;;9.00;99.90;;;;;;5027033;28;20068;-74
2021/12/17 15:37:40;;;;;;;6.05;4.20;;;8.90;99.90;;;;;;5027258;28;20039;-74
2021/12/17 15:40:06;;;;;;;7.80;4.10;;;8.80;99.90;;;;;;5027376;28;20561;-74
2021/12/17 15:42:32;;;;;;;6.10;4.35;;;8.70;99.90;;;;;;5027489;28;20112;-74
2021/12/17 15:44:58;;;;;;;5.45;3.58;;;8.60;99.90;;;;;;5028398;28;20558;-74
2021/12/17 15:47:24;;;;;;;5.65;3.88;;;8.50;99.90;;;;;;5026761;28;20042;-74
2021/12/17 15:49:50;;;;;;;6.25;3.70;;;8.50;99.90;;;;;;5026697;28;20513;-74
2021/12/17 15:52:16;;;;;;;7.10;3.92;;;8.50;99.90;;;;;;5009234;28;20429;-74
2021/12/17 15:54:42;;;;;;;5.53;4.00;;;8.40;99.90;;;;;;5026185;28;20029;-74
2021/12/17 15:57:08;;;;;;;5.57;3.72;;;8.40;99.90;;;;;;5028117;28;20033;-74
2021/12/17 15:59:34;;;;;;;5.78;4.15;;;8.30;99.90;;;;;;5025110;28;20033;-74
2021/12/17 16:02:02;;;;;;;6.68;3.38;;;8.30;99.90;;;;;;5028096;28;20029;-75
2021/12/17 16:04:31;;;;;;;7.00;4.22;;;8.20;99.90;;;;;;5027160;28;20026;-74
2021/12/17 16:06:59;;;;;;;6.78;4.65;;;8.20;99.90;;;;;;5026615;28;20067;-74
2021/12/17 16:22:47;;;;;;;7.68;4.55;;;7.90;99.90;;;;;;4981612;28;20043;-74
2021/12/17 16:25:13;;;;;;;5.60;3.47;;;7.80;99.90;;;;;;4970838;28;20066;-74
2021/12/17 16:27:39;;;;;;;4.57;3.65;;;7.80;99.90;;;;;;4984328;28;20030;-74
2021/12/17 16:30:05;;;;;;;5.15;4.38;;;7.80;99.90;;;;;;4967730;28;20039;-74
2021/12/17 16:32:31;;;;;;;6.78;3.92;;;7.90;99.90;;;;;;4983461;28;20100;-74
2021/12/17 16:34:57;;;;;;;8.15;4.45;;;7.80;99.90;;;;;;4980310;28;20492;-74
2021/12/17 16:37:22;;;;;;;6.80;4.43;;;7.90;99.90;;;;;;4973899;28;20085;-74
2021/12/17 16:39:49;;;;;;;7.25;4.10;;;7.80;99.90;;;;;;4967206;28;20219;-74
2021/12/17 16:42:17;;;;;;;7.40;4.50;;;7.70;99.90;;;;;;4986839;28;20520;-74
2021/12/17 16:47:30;;;;;;;5.47;3.97;;;7.50;99.90;;;;;;4988470;28;20097;-74
2021/12/17 16:49:57;;;;;;;4.93;3.72;;;7.30;99.90;;;;;;4988873;28;20520;-74